sensor_id;sensor_type;location;lat;lon;timestamp;pressure;altitude;pressure_sealevel;temperature;humidity
84959;BME280;75256;48.062;11.662;2024-02-28T00:00:41;95056.69;;;5.34;79.64
84959;BME280;75256;48.062;11.662;2024-02-28T00:03:06;95066.81;;;5.30;80.02
84959;BME280;75256;48.062;11.662;2024-02-28T00:05:34;95064.31;;;5.39;79.82
84959;BME280;75256;48.062;11.662;2024-02-28T00:08:02;95058.91;;;5.39;78.31
84959;BME280;75256;48.062;11.662;2024-02-28T00:10:28;95067.34;;;5.41;79.51
84959;BME280;75256;48.062;11.662;2024-02-28T00:12:53;95059.72;;;5.36;79.83
84959;BME280;75256;48.062;11.662;2024-02-28T00:15:19;95066.53;;;5.44;79.68
84959;BME280;75256;48.062;11.662;2024-02-28T00:17:44;95061.03;;;5.48;79.39
84959;BME280;75256;48.062;11.662;2024-02-28T00:20:10;95060.56;;;5.33;80.83
84959;BME280;75256;48.062;11.662;2024-02-28T00:22:36;95067.91;;;5.13;81.30
84959;BME280;75256;48.062;11.662;2024-02-28T00:25:07;95063.22;;;5.17;81.11
84959;BME280;75256;48.062;11.662;2024-02-28T00:27:33;95076.38;;;5.15;81.67
84959;BME280;75256;48.062;11.662;2024-02-28T00:29:59;95080.34;;;5.30;80.77
84959;BME280;75256;48.062;11.662;2024-02-28T00:32:28;95073.69;;;5.35;80.44
84959;BME280;75256;48.062;11.662;2024-02-28T00:34:53;95080.16;;;5.41;80.28
84959;BME280;75256;48.062;11.662;2024-02-28T00:37:23;95085.56;;;5.41;80.32
84959;BME280;75256;48.062;11.662;2024-02-28T00:39:51;95090.34;;;5.33;80.99
84959;BME280;75256;48.062;11.662;2024-02-28T00:42:16;95092.13;;;5.40;80.80
84959;BME280;75256;48.062;11.662;2024-02-28T00:44:44;95095.97;;;5.42;80.44
84959;BME280;75256;48.062;11.662;2024-02-28T00:47:12;95092.91;;;5.40;80.77
84959;BME280;75256;48.062;11.662;2024-02-28T00:49:38;95095.59;;;5.40;80.92
84959;BME280;75256;48.062;11.662;2024-02-28T00:52:05;95100.88;;;5.28;81.93
84959;BME280;75256;48.062;11.662;2024-02-28T00:54:31;95104.34;;;5.28;81.68
84959;BME280;75256;48.062;11.662;2024-02-28T00:56:58;95109.97;;;5.37;81.28
84959;BME280;75256;48.062;11.662;2024-02-28T00:59:25;95115.66;;;5.43;80.96
84959;BME280;75256;48.062;11.662;2024-02-28T01:01:53;95128.91;;;5.37;81.48
84959;BME280;75256;48.062;11.662;2024-02-28T01:04:18;95124.34;;;5.34;81.69
84959;BME280;75256;48.062;11.662;2024-02-28T01:06:46;95137.16;;;5.30;81.94
84959;BME280;75256;48.062;11.662;2024-02-28T01:09:13;95142.56;;;5.30;82.21
84959;BME280;75256;48.062;11.662;2024-02-28T01:11:41;95144.81;;;5.35;82.23
84959;BME280;75256;48.062;11.662;2024-02-28T01:14:06;95142.09;;;5.35;82.05
84959;BME280;75256;48.062;11.662;2024-02-28T01:16:32;95150.22;;;5.35;82.65
84959;BME280;75256;48.062;11.662;2024-02-28T01:18:59;95152.44;;;5.40;82.46
84959;BME280;75256;48.062;11.662;2024-02-28T01:21:25;95149.97;;;5.49;82.10
84959;BME280;75256;48.062;11.662;2024-02-28T01:23:51;95163.50;;;5.49;82.07
84959;BME280;75256;48.062;11.662;2024-02-28T01:26:17;95164.66;;;5.48;82.08
84959;BME280;75256;48.062;11.662;2024-02-28T01:28:45;95165.06;;;5.47;82.12
84959;BME280;75256;48.062;11.662;2024-02-28T01:31:10;95160.19;;;5.38;82.65
84959;BME280;75256;48.062;11.662;2024-02-28T01:33:38;95159.72;;;5.43;82.54
84959;BME280;75256;48.062;11.662;2024-02-28T01:36:08;95159.38;;;5.41;82.55
84959;BME280;75256;48.062;11.662;2024-02-28T01:38:36;95156.53;;;5.48;82.26
84959;BME280;75256;48.062;11.662;2024-02-28T01:41:02;95146.00;;;5.34;82.51
84959;BME280;75256;48.062;11.662;2024-02-28T01:43:32;95150.53;;;5.18;83.70
84959;BME280;75256;48.062;11.662;2024-02-28T01:46:01;95151.34;;;5.15;83.86
84959;BME280;75256;48.062;11.662;2024-02-28T01:48:28;95142.28;;;5.25;83.71
84959;BME280;75256;48.062;11.662;2024-02-28T01:50:55;95150.94;;;5.39;82.85
84959;BME280;75256;48.062;11.662;2024-02-28T01:53:23;95145.72;;;5.48;82.46
84959;BME280;75256;48.062;11.662;2024-02-28T01:55:52;95142.56;;;5.30;83.05
84959;BME280;75256;48.062;11.662;2024-02-28T01:58:19;95143.75;;;5.29;83.23
84959;BME280;75256;48.062;11.662;2024-02-28T02:00:45;95147.75;;;5.44;82.20
84959;BME280;75256;48.062;11.662;2024-02-28T02:03:13;95150.28;;;5.51;82.02
84959;BME280;75256;48.062;11.662;2024-02-28T02:05:41;95148.59;;;5.38;82.87
84959;BME280;75256;48.062;11.662;2024-02-28T02:08:07;95153.41;;;5.30;83.53
84959;BME280;75256;48.062;11.662;2024-02-28T02:10:34;95150.47;;;5.21;82.96
84959;BME280;75256;48.062;11.662;2024-02-28T02:13:06;95144.25;;;5.24;82.57
84959;BME280;75256;48.062;11.662;2024-02-28T02:15:34;95153.75;;;5.09;84.07
84959;BME280;75256;48.062;11.662;2024-02-28T02:17:59;95155.38;;;5.06;84.24
84959;BME280;75256;48.062;11.662;2024-02-28T02:20:26;95148.28;;;5.13;83.54
84959;BME280;75256;48.062;11.662;2024-02-28T02:22:54;95146.97;;;5.01;84.70
84959;BME280;75256;48.062;11.662;2024-02-28T02:25:19;95152.38;;;5.01;84.45
84959;BME280;75256;48.062;11.662;2024-02-28T02:27:45;95143.56;;;4.97;84.64
84959;BME280;75256;48.062;11.662;2024-02-28T02:30:13;95144.09;;;4.88;85.35
84959;BME280;75256;48.062;11.662;2024-02-28T02:32:40;95143.69;;;4.90;85.91
84959;BME280;75256;48.062;11.662;2024-02-28T02:35:06;95143.88;;;4.99;84.96
84959;BME280;75256;48.062;11.662;2024-02-28T02:37:33;95152.25;;;5.08;84.67
84959;BME280;75256;48.062;11.662;2024-02-28T02:39:59;95138.84;;;5.24;84.00
84959;BME280;75256;48.062;11.662;2024-02-28T02:42:24;95145.31;;;5.07;85.15
84959;BME280;75256;48.062;11.662;2024-02-28T02:44:50;95155.19;;;5.17;84.31
84959;BME280;75256;48.062;11.662;2024-02-28T02:47:20;95148.22;;;5.16;84.28
84959;BME280;75256;48.062;11.662;2024-02-28T02:49:48;95150.72;;;5.07;85.60
84959;BME280;75256;48.062;11.662;2024-02-28T02:52:16;95159.16;;;5.09;84.52
84959;BME280;75256;48.062;11.662;2024-02-28T02:54:41;95154.28;;;5.24;84.11
84959;BME280;75256;48.062;11.662;2024-02-28T02:57:06;95159.78;;;5.20;84.42
84959;BME280;75256;48.062;11.662;2024-02-28T02:59:34;95165.81;;;5.04;85.18
84959;BME280;75256;48.062;11.662;2024-02-28T03:02:03;95166.31;;;4.99;85.53
84959;BME280;75256;48.062;11.662;2024-02-28T03:04:31;95165.19;;;5.20;84.35
84959;BME280;75256;48.062;11.662;2024-02-28T03:06:58;95159.53;;;5.11;85.01
84959;BME280;75256;48.062;11.662;2024-02-28T03:09:26;95162.50;;;4.97;86.00
84959;BME280;75256;48.062;11.662;2024-02-28T03:11:51;95170.31;;;4.91;86.35
84959;BME280;75256;48.062;11.662;2024-02-28T03:14:19;95159.72;;;5.00;85.78
84959;BME280;75256;48.062;11.662;2024-02-28T03:16:47;95169.31;;;5.05;85.66
84959;BME280;75256;48.062;11.662;2024-02-28T03:19:16;95171.53;;;5.10;85.63
84959;BME280;75256;48.062;11.662;2024-02-28T03:21:44;95179.28;;;5.08;85.69
84959;BME280;75256;48.062;11.662;2024-02-28T03:24:12;95184.72;;;5.08;84.91
84959;BME280;75256;48.062;11.662;2024-02-28T03:26:37;95179.75;;;5.26;84.38
84959;BME280;75256;48.062;11.662;2024-02-28T03:29:02;95181.16;;;5.34;83.83
84959;BME280;75256;48.062;11.662;2024-02-28T03:31:30;95181.09;;;5.38;83.78
84959;BME280;75256;48.062;11.662;2024-02-28T03:33:58;95180.97;;;5.45;83.29
84959;BME280;75256;48.062;11.662;2024-02-28T03:36:23;95193.09;;;5.37;83.61
84959;BME280;75256;48.062;11.662;2024-02-28T03:38:49;95189.97;;;5.38;83.86
84959;BME280;75256;48.062;11.662;2024-02-28T03:41:14;95200.63;;;5.49;82.82
84959;BME280;75256;48.062;11.662;2024-02-28T03:43:40;95198.31;;;5.47;83.20
84959;BME280;75256;48.062;11.662;2024-02-28T03:46:07;95212.16;;;5.30;84.32
84959;BME280;75256;48.062;11.662;2024-02-28T03:48:33;95207.34;;;5.18;84.91
84959;BME280;75256;48.062;11.662;2024-02-28T03:50:58;95203.28;;;5.29;84.41
84959;BME280;75256;48.062;11.662;2024-02-28T03:53:24;95210.81;;;5.18;85.09
84959;BME280;75256;48.062;11.662;2024-02-28T03:55:50;95214.13;;;5.29;84.91
84959;BME280;75256;48.062;11.662;2024-02-28T03:58:15;95209.75;;;5.35;84.51
84959;BME280;75256;48.062;11.662;2024-02-28T04:00:40;95220.38;;;5.23;84.37
84959;BME280;75256;48.062;11.662;2024-02-28T04:03:09;95218.75;;;5.29;85.00
84959;BME280;75256;48.062;11.662;2024-02-28T04:05:35;95224.69;;;5.20;85.25
84959;BME280;75256;48.062;11.662;2024-02-28T04:08:00;95222.56;;;5.08;86.22
84959;BME280;75256;48.062;11.662;2024-02-28T04:10:25;95232.41;;;4.98;86.65
84959;BME280;75256;48.062;11.662;2024-02-28T04:12:51;95238.31;;;4.90;87.24
84959;BME280;75256;48.062;11.662;2024-02-28T04:15:18;95237.69;;;4.79;87.70
84959;BME280;75256;48.062;11.662;2024-02-28T04:17:46;95243.09;;;4.79;87.52
84959;BME280;75256;48.062;11.662;2024-02-28T04:20:14;95240.88;;;4.74;88.15
84959;BME280;75256;48.062;11.662;2024-02-28T04:22:40;95250.22;;;4.69;87.98
84959;BME280;75256;48.062;11.662;2024-02-28T04:25:07;95250.56;;;4.71;87.91
84959;BME280;75256;48.062;11.662;2024-02-28T04:27:36;95255.72;;;4.62;88.36
84959;BME280;75256;48.062;11.662;2024-02-28T04:30:02;95260.38;;;4.62;88.39
84959;BME280;75256;48.062;11.662;2024-02-28T04:32:30;95254.56;;;4.63;88.46
84959;BME280;75256;48.062;11.662;2024-02-28T04:34:55;95264.13;;;4.68;88.28
84959;BME280;75256;48.062;11.662;2024-02-28T04:37:21;95261.88;;;4.63;88.49
84959;BME280;75256;48.062;11.662;2024-02-28T04:39:47;95271.19;;;4.62;88.27
84959;BME280;75256;48.062;11.662;2024-02-28T04:42:16;95276.59;;;4.62;88.41
84959;BME280;75256;48.062;11.662;2024-02-28T04:44:43;95273.13;;;4.61;88.23
84959;BME280;75256;48.062;11.662;2024-02-28T04:47:09;95281.13;;;4.68;87.93
84959;BME280;75256;48.062;11.662;2024-02-28T04:49:38;95283.47;;;4.66;88.53
84959;BME280;75256;48.062;11.662;2024-02-28T04:52:06;95290.44;;;4.64;88.38
84959;BME280;75256;48.062;11.662;2024-02-28T04:54:32;95285.84;;;4.61;88.28
84959;BME280;75256;48.062;11.662;2024-02-28T04:56:57;95288.91;;;4.63;87.91
84959;BME280;75256;48.062;11.662;2024-02-28T04:59:23;95286.19;;;4.66;87.99
84959;BME280;75256;48.062;11.662;2024-02-28T05:01:48;95289.97;;;4.69;87.21
84959;BME280;75256;48.062;11.662;2024-02-28T05:04:13;95288.47;;;4.68;87.06
84959;BME280;75256;48.062;11.662;2024-02-28T05:06:41;95295.06;;;4.67;87.31
84959;BME280;75256;48.062;11.662;2024-02-28T05:09:07;95294.38;;;4.59;87.13
84959;BME280;75256;48.062;11.662;2024-02-28T05:11:34;95289.78;;;4.56;87.35
84959;BME280;75256;48.062;11.662;2024-02-28T05:14:03;95292.91;;;4.55;87.42
84959;BME280;75256;48.062;11.662;2024-02-28T05:16:28;95294.78;;;4.58;87.54
84959;BME280;75256;48.062;11.662;2024-02-28T05:18:53;95290.09;;;4.62;87.40
84959;BME280;75256;48.062;11.662;2024-02-28T05:21:19;95289.38;;;4.58;87.69
84959;BME280;75256;48.062;11.662;2024-02-28T05:23:47;95294.69;;;4.65;87.53
84959;BME280;75256;48.062;11.662;2024-02-28T05:26:12;95304.56;;;4.78;86.84
84959;BME280;75256;48.062;11.662;2024-02-28T05:28:39;95312.44;;;4.92;86.56
84959;BME280;75256;48.062;11.662;2024-02-28T05:31:25;95310.88;;;4.95;86.63
84959;BME280;75256;48.062;11.662;2024-02-28T05:33:54;95316.66;;;4.97;85.95
84959;BME280;75256;48.062;11.662;2024-02-28T05:36:21;95321.22;;;5.00;85.99
84959;BME280;75256;48.062;11.662;2024-02-28T05:38:47;95321.59;;;5.02;85.74
84959;BME280;75256;48.062;11.662;2024-02-28T05:41:16;95322.38;;;4.99;85.48
84959;BME280;75256;48.062;11.662;2024-02-28T05:43:41;95329.59;;;5.09;85.76
84959;BME280;75256;48.062;11.662;2024-02-28T05:46:09;95336.03;;;5.19;85.36
84959;BME280;75256;48.062;11.662;2024-02-28T05:48:35;95338.56;;;5.02;85.14
84959;BME280;75256;48.062;11.662;2024-02-28T05:51:03;95338.84;;;4.85;85.90
84959;BME280;75256;48.062;11.662;2024-02-28T05:53:29;95350.16;;;4.76;86.61
84959;BME280;75256;48.062;11.662;2024-02-28T05:56:04;95345.97;;;4.72;86.63
84959;BME280;75256;48.062;11.662;2024-02-28T05:58:30;95347.47;;;4.73;86.63
84959;BME280;75256;48.062;11.662;2024-02-28T06:00:55;95360.56;;;4.78;86.46
84959;BME280;75256;48.062;11.662;2024-02-28T06:03:21;95350.91;;;4.77;86.93
84959;BME280;75256;48.062;11.662;2024-02-28T06:05:47;95358.31;;;4.73;86.77
84959;BME280;75256;48.062;11.662;2024-02-28T06:08:12;95363.00;;;4.65;87.19
84959;BME280;75256;48.062;11.662;2024-02-28T06:10:38;95365.38;;;4.63;87.87
84959;BME280;75256;48.062;11.662;2024-02-28T06:13:03;95363.47;;;4.60;87.68
84959;BME280;75256;48.062;11.662;2024-02-28T06:15:29;95371.22;;;4.58;87.91
84959;BME280;75256;48.062;11.662;2024-02-28T06:17:57;95372.38;;;4.57;88.00
84959;BME280;75256;48.062;11.662;2024-02-28T06:20:26;95375.50;;;4.56;87.96
84959;BME280;75256;48.062;11.662;2024-02-28T06:22:51;95382.03;;;4.58;88.04
84959;BME280;75256;48.062;11.662;2024-02-28T06:25:19;95388.94;;;4.63;88.06
84959;BME280;75256;48.062;11.662;2024-02-28T06:27:49;95390.13;;;4.62;87.82
84959;BME280;75256;48.062;11.662;2024-02-28T06:30:15;95394.41;;;4.56;87.97
84959;BME280;75256;48.062;11.662;2024-02-28T06:32:42;95393.72;;;4.52;88.38
84959;BME280;75256;48.062;11.662;2024-02-28T06:35:10;95401.72;;;4.59;88.27
84959;BME280;75256;48.062;11.662;2024-02-28T06:37:38;95409.06;;;4.58;87.91
84959;BME280;75256;48.062;11.662;2024-02-28T06:40:03;95416.25;;;4.72;87.51
84959;BME280;75256;48.062;11.662;2024-02-28T06:42:29;95423.03;;;4.87;87.14
84959;BME280;75256;48.062;11.662;2024-02-28T06:44:55;95416.22;;;4.75;87.01
84959;BME280;75256;48.062;11.662;2024-02-28T06:47:20;95421.97;;;4.77;87.28
84959;BME280;75256;48.062;11.662;2024-02-28T06:49:46;95425.56;;;4.67;87.82
84959;BME280;75256;48.062;11.662;2024-02-28T06:52:11;95431.28;;;4.73;87.35
84959;BME280;75256;48.062;11.662;2024-02-28T06:54:39;95422.81;;;4.71;87.69
84959;BME280;75256;48.062;11.662;2024-02-28T06:57:05;95426.69;;;4.70;87.40
84959;BME280;75256;48.062;11.662;2024-02-28T06:59:30;95424.25;;;4.79;87.19
84959;BME280;75256;48.062;11.662;2024-02-28T07:01:56;95425.44;;;4.78;87.40
84959;BME280;75256;48.062;11.662;2024-02-28T07:04:22;95435.44;;;4.81;86.94
84959;BME280;75256;48.062;11.662;2024-02-28T07:06:49;95430.94;;;5.01;86.00
84959;BME280;75256;48.062;11.662;2024-02-28T07:09:15;95434.59;;;4.87;86.82
84959;BME280;75256;48.062;11.662;2024-02-28T07:11:43;95443.09;;;4.86;86.56
84959;BME280;75256;48.062;11.662;2024-02-28T07:14:11;95440.00;;;4.87;87.13
84959;BME280;75256;48.062;11.662;2024-02-28T07:16:37;95442.28;;;4.89;86.74
84959;BME280;75256;48.062;11.662;2024-02-28T07:19:02;95450.78;;;4.91;86.58
84959;BME280;75256;48.062;11.662;2024-02-28T07:21:28;95445.72;;;4.93;86.94
84959;BME280;75256;48.062;11.662;2024-02-28T07:23:55;95447.31;;;4.90;87.32
84959;BME280;75256;48.062;11.662;2024-02-28T07:26:23;95442.56;;;4.98;86.49
84959;BME280;75256;48.062;11.662;2024-02-28T07:28:49;95449.13;;;5.00;86.39
84959;BME280;75256;48.062;11.662;2024-02-28T07:31:18;95448.34;;;5.00;85.95
84959;BME280;75256;48.062;11.662;2024-02-28T07:33:44;95444.47;;;5.01;85.92
84959;BME280;75256;48.062;11.662;2024-02-28T07:36:10;95451.09;;;4.96;85.89
84959;BME280;75256;48.062;11.662;2024-02-28T07:38:35;95446.44;;;5.00;86.23
84959;BME280;75256;48.062;11.662;2024-02-28T07:41:03;95439.72;;;5.12;85.42
84959;BME280;75256;48.062;11.662;2024-02-28T07:43:29;95440.28;;;5.27;85.08
84959;BME280;75256;48.062;11.662;2024-02-28T07:45:58;95448.47;;;5.20;84.82
84959;BME280;75256;48.062;11.662;2024-02-28T07:48:26;95450.47;;;5.16;85.01
84959;BME280;75256;48.062;11.662;2024-02-28T07:50:51;95447.09;;;5.08;85.15
84959;BME280;75256;48.062;11.662;2024-02-28T07:53:22;95444.47;;;5.01;85.17
84959;BME280;75256;48.062;11.662;2024-02-28T07:55:52;95458.28;;;5.10;84.82
84959;BME280;75256;48.062;11.662;2024-02-28T07:58:18;95452.94;;;5.33;83.85
84959;BME280;75256;48.062;11.662;2024-02-28T08:00:45;95463.00;;;5.33;84.14
84959;BME280;75256;48.062;11.662;2024-02-28T08:03:11;95460.19;;;5.40;83.38
84959;BME280;75256;48.062;11.662;2024-02-28T08:05:36;95470.19;;;5.43;83.37
84959;BME280;75256;48.062;11.662;2024-02-28T08:08:07;95464.09;;;5.39;83.48
84959;BME280;75256;48.062;11.662;2024-02-28T08:10:37;95473.69;;;5.43;83.58
84959;BME280;75256;48.062;11.662;2024-02-28T08:13:03;95476.59;;;5.29;83.95
84959;BME280;75256;48.062;11.662;2024-02-28T08:15:28;95482.78;;;5.26;84.12
84959;BME280;75256;48.062;11.662;2024-02-28T08:17:54;95487.59;;;5.15;84.26
84959;BME280;75256;48.062;11.662;2024-02-28T08:20:20;95492.44;;;4.97;84.72
84959;BME280;75256;48.062;11.662;2024-02-28T08:22:46;95497.19;;;4.86;85.49
84959;BME280;75256;48.062;11.662;2024-02-28T08:25:11;95492.06;;;4.95;85.01
84959;BME280;75256;48.062;11.662;2024-02-28T08:27:39;95502.50;;;4.96;84.54
84959;BME280;75256;48.062;11.662;2024-02-28T08:30:05;95506.69;;;5.01;84.12
84959;BME280;75256;48.062;11.662;2024-02-28T08:32:31;95502.91;;;4.95;84.36
84959;BME280;75256;48.062;11.662;2024-02-28T08:34:57;95497.13;;;4.93;84.59
84959;BME280;75256;48.062;11.662;2024-02-28T08:37:23;95500.19;;;4.95;85.01
84959;BME280;75256;48.062;11.662;2024-02-28T08:39:49;95499.19;;;5.16;84.59
84959;BME280;75256;48.062;11.662;2024-02-28T08:42:14;95499.63;;;5.41;83.62
84959;BME280;75256;48.062;11.662;2024-02-28T08:44:39;95501.63;;;5.63;82.13
84959;BME280;75256;48.062;11.662;2024-02-28T08:47:07;95498.28;;;5.56;82.45
84959;BME280;75256;48.062;11.662;2024-02-28T08:49:34;95495.66;;;5.49;82.97
84959;BME280;75256;48.062;11.662;2024-02-28T08:52:02;95496.13;;;5.70;82.25
84959;BME280;75256;48.062;11.662;2024-02-28T08:54:28;95503.00;;;5.75;81.85
84959;BME280;75256;48.062;11.662;2024-02-28T08:56:53;95503.63;;;5.89;81.11
84959;BME280;75256;48.062;11.662;2024-02-28T08:59:19;95506.19;;;5.96;80.75
84959;BME280;75256;48.062;11.662;2024-02-28T09:01:45;95512.53;;;5.86;81.17
84959;BME280;75256;48.062;11.662;2024-02-28T09:04:12;95508.09;;;5.73;80.99
84959;BME280;75256;48.062;11.662;2024-02-28T09:06:37;95523.75;;;5.58;81.90
84959;BME280;75256;48.062;11.662;2024-02-28T09:09:03;95521.44;;;5.57;81.93
84959;BME280;75256;48.062;11.662;2024-02-28T09:11:29;95529.63;;;5.53;82.26
84959;BME280;75256;48.062;11.662;2024-02-28T09:13:54;95523.09;;;5.77;81.48
84959;BME280;75256;48.062;11.662;2024-02-28T09:16:20;95529.00;;;5.99;80.82
84959;BME280;75256;48.062;11.662;2024-02-28T09:18:45;95530.28;;;6.17;79.94
84959;BME280;75256;48.062;11.662;2024-02-28T09:21:15;95531.22;;;6.30;79.18
84959;BME280;75256;48.062;11.662;2024-02-28T09:23:43;95536.19;;;6.36;78.67
84959;BME280;75256;48.062;11.662;2024-02-28T09:26:08;95534.75;;;6.27;79.20
84959;BME280;75256;48.062;11.662;2024-02-28T09:28:34;95543.25;;;6.29;79.16
84959;BME280;75256;48.062;11.662;2024-02-28T09:31:01;95551.09;;;6.24;78.74
84959;BME280;75256;48.062;11.662;2024-02-28T09:33:27;95547.72;;;6.16;79.42
84959;BME280;75256;48.062;11.662;2024-02-28T09:35:52;95545.41;;;6.15;79.54
84959;BME280;75256;48.062;11.662;2024-02-28T09:38:20;95538.94;;;6.09;79.71
84959;BME280;75256;48.062;11.662;2024-02-28T09:40:46;95539.84;;;5.99;79.88
84959;BME280;75256;48.062;11.662;2024-02-28T09:43:40;95547.47;;;6.07;80.84
84959;BME280;75256;48.062;11.662;2024-02-28T09:46:06;95542.13;;;6.27;79.68
84959;BME280;75256;48.062;11.662;2024-02-28T09:48:32;95555.09;;;6.39;79.02
84959;BME280;75256;48.062;11.662;2024-02-28T09:50:59;95554.94;;;6.50;79.02
84959;BME280;75256;48.062;11.662;2024-02-28T09:53:25;95553.28;;;6.56;78.21
84959;BME280;75256;48.062;11.662;2024-02-28T09:55:51;95554.78;;;6.10;78.95
84959;BME280;75256;48.062;11.662;2024-02-28T09:58:21;95550.38;;;5.93;80.42
84959;BME280;75256;48.062;11.662;2024-02-28T10:00:48;95546.31;;;6.05;80.47
84959;BME280;75256;48.062;11.662;2024-02-28T10:03:17;95548.78;;;6.22;79.05
84959;BME280;75256;48.062;11.662;2024-02-28T10:05:44;95546.59;;;6.37;79.25
84959;BME280;75256;48.062;11.662;2024-02-28T10:08:11;95544.31;;;6.36;78.44
84959;BME280;75256;48.062;11.662;2024-02-28T10:10:37;95550.63;;;6.29;79.21
84959;BME280;75256;48.062;11.662;2024-02-28T10:13:03;95556.00;;;6.06;79.34
84959;BME280;75256;48.062;11.662;2024-02-28T10:15:33;95553.69;;;5.78;80.40
84959;BME280;75256;48.062;11.662;2024-02-28T10:17:59;95545.56;;;5.78;80.93
84959;BME280;75256;48.062;11.662;2024-02-28T10:20:24;95553.41;;;5.99;80.51
84959;BME280;75256;48.062;11.662;2024-02-28T10:22:52;95547.94;;;5.72;80.58
84959;BME280;75256;48.062;11.662;2024-02-28T10:25:18;95554.22;;;5.66;81.36
84959;BME280;75256;48.062;11.662;2024-02-28T10:27:46;95558.97;;;5.88;80.45
84959;BME280;75256;48.062;11.662;2024-02-28T10:30:12;95561.28;;;6.16;79.50
84959;BME280;75256;48.062;11.662;2024-02-28T10:32:50;95552.63;;;6.48;77.87
84959;BME280;75256;48.062;11.662;2024-02-28T10:35:19;95562.59;;;6.32;77.63
84959;BME280;75256;48.062;11.662;2024-02-28T10:37:45;95558.00;;;6.02;79.06
84959;BME280;75256;48.062;11.662;2024-02-28T10:40:14;95566.63;;;6.20;78.68
84959;BME280;75256;48.062;11.662;2024-02-28T10:42:43;95558.59;;;6.40;77.57
84959;BME280;75256;48.062;11.662;2024-02-28T10:45:12;95561.88;;;6.27;77.60
84959;BME280;75256;48.062;11.662;2024-02-28T10:47:43;95563.22;;;6.39;77.84
84959;BME280;75256;48.062;11.662;2024-02-28T10:50:12;95568.03;;;6.78;76.43
84959;BME280;75256;48.062;11.662;2024-02-28T10:52:44;95568.03;;;6.78;76.84
84959;BME280;75256;48.062;11.662;2024-02-28T10:55:11;95568.94;;;7.14;75.92
84959;BME280;75256;48.062;11.662;2024-02-28T10:57:38;95567.25;;;7.39;74.41
84959;BME280;75256;48.062;11.662;2024-02-28T11:00:05;95565.50;;;7.10;74.88
84959;BME280;75256;48.062;11.662;2024-02-28T11:02:34;95570.31;;;7.22;74.36
84959;BME280;75256;48.062;11.662;2024-02-28T11:05:00;95565.94;;;7.08;74.84
84959;BME280;75256;48.062;11.662;2024-02-28T11:07:27;95573.81;;;6.57;74.71
84959;BME280;75256;48.062;11.662;2024-02-28T11:09:55;95564.91;;;6.56;76.27
84959;BME280;75256;48.062;11.662;2024-02-28T11:12:28;95567.66;;;6.76;75.64
84959;BME280;75256;48.062;11.662;2024-02-28T11:15:01;95574.91;;;6.82;75.53
84959;BME280;75256;48.062;11.662;2024-02-28T11:17:30;95572.63;;;7.04;75.13
84959;BME280;75256;48.062;11.662;2024-02-28T11:19:56;95579.97;;;7.03;75.16
84959;BME280;75256;48.062;11.662;2024-02-28T11:22:21;95578.03;;;6.81;75.18
84959;BME280;75256;48.062;11.662;2024-02-28T11:24:54;95575.22;;;6.65;75.78
84959;BME280;75256;48.062;11.662;2024-02-28T11:27:21;95582.09;;;6.69;75.87
84959;BME280;75256;48.062;11.662;2024-02-28T11:29:47;95590.50;;;6.28;77.05
84959;BME280;75256;48.062;11.662;2024-02-28T11:32:14;95583.69;;;6.17;77.71
84959;BME280;75256;48.062;11.662;2024-02-28T11:34:41;95586.38;;;6.20;77.52
84959;BME280;75256;48.062;11.662;2024-02-28T11:37:08;95588.63;;;6.49;77.38
84959;BME280;75256;48.062;11.662;2024-02-28T11:39:34;95586.97;;;6.58;76.41
84959;BME280;75256;48.062;11.662;2024-02-28T11:42:10;95580.28;;;6.40;76.73
84959;BME280;75256;48.062;11.662;2024-02-28T11:44:35;95584.28;;;6.32;77.43
84959;BME280;75256;48.062;11.662;2024-02-28T11:47:01;95582.06;;;6.50;76.82
84959;BME280;75256;48.062;11.662;2024-02-28T11:49:34;95589.34;;;6.53;76.12
84959;BME280;75256;48.062;11.662;2024-02-28T11:52:00;95581.13;;;6.60;76.44
84959;BME280;75256;48.062;11.662;2024-02-28T11:54:28;95583.72;;;6.40;76.62
84959;BME280;75256;48.062;11.662;2024-02-28T11:56:53;95581.28;;;6.49;76.89
84959;BME280;75256;48.062;11.662;2024-02-28T11:59:22;95580.69;;;6.61;76.06
84959;BME280;75256;48.062;11.662;2024-02-28T12:01:47;95581.94;;;6.80;75.92
84959;BME280;75256;48.062;11.662;2024-02-28T12:04:16;95580.75;;;6.58;76.78
84959;BME280;75256;48.062;11.662;2024-02-28T12:06:46;95581.53;;;6.58;75.53
84959;BME280;75256;48.062;11.662;2024-02-28T12:09:16;95587.44;;;6.26;76.75
84959;BME280;75256;48.062;11.662;2024-02-28T12:11:48;95578.66;;;6.19;77.25
84959;BME280;75256;48.062;11.662;2024-02-28T12:14:16;95590.63;;;6.21;77.03
84959;BME280;75256;48.062;11.662;2024-02-28T12:16:42;95585.91;;;6.25;76.97
84959;BME280;75256;48.062;11.662;2024-02-28T12:19:10;95584.47;;;6.44;76.10
84959;BME280;75256;48.062;11.662;2024-02-28T12:21:40;95589.06;;;6.20;77.25
84959;BME280;75256;48.062;11.662;2024-02-28T12:24:11;95593.41;;;6.41;76.88
84959;BME280;75256;48.062;11.662;2024-02-28T12:26:38;95588.53;;;6.56;76.92
84959;BME280;75256;48.062;11.662;2024-02-28T12:29:06;95588.38;;;6.16;78.05
84959;BME280;75256;48.062;11.662;2024-02-28T12:31:34;95590.53;;;6.25;78.55
84959;BME280;75256;48.062;11.662;2024-02-28T12:34:04;95588.09;;;6.34;77.66
84959;BME280;75256;48.062;11.662;2024-02-28T12:36:32;95585.94;;;6.49;77.14
84959;BME280;75256;48.062;11.662;2024-02-28T12:39:00;95586.34;;;6.47;77.42
84959;BME280;75256;48.062;11.662;2024-02-28T12:41:26;95581.75;;;6.44;77.46
84959;BME280;75256;48.062;11.662;2024-02-28T12:43:51;95581.09;;;6.37;78.06
84959;BME280;75256;48.062;11.662;2024-02-28T12:46:19;95586.63;;;6.29;78.57
84959;BME280;75256;48.062;11.662;2024-02-28T12:48:45;95583.66;;;6.20;78.52
84959;BME280;75256;48.062;11.662;2024-02-28T12:51:20;95586.44;;;5.87;79.59
84959;BME280;75256;48.062;11.662;2024-02-28T12:53:46;95582.66;;;5.81;80.22
84959;BME280;75256;48.062;11.662;2024-02-28T12:56:12;95578.09;;;6.04;79.62
84959;BME280;75256;48.062;11.662;2024-02-28T12:58:37;95587.56;;;6.19;78.97